sensor_id;sensor_type;location;lat;lon;timestamp;P1;durP1;ratioP1;P2;durP2;ratioP2
11431;SDS011;5772;50.940;6.782;2023-04-15T00:02:17;22.17;;;21.03;;
11431;SDS011;5772;50.940;6.782;2023-04-15T00:04:43;23.37;;;22.17;;
11431;SDS011;5772;50.940;6.782;2023-04-15T00:07:09;21.63;;;20.53;;
11431;SDS011;5772;50.940;6.782;2023-04-15T00:09:35;22.73;;;21.73;;
11431;SDS011;5772;50.940;6.782;2023-04-15T00:12:01;23.40;;;22.37;;
11431;SDS011;5772;50.940;6.782;2023-04-15T00:14:26;22.50;;;21.20;;
11431;SDS011;5772;50.940;6.782;2023-04-15T00:16:51;22.57;;;21.37;;
11431;SDS011;5772;50.940;6.782;2023-04-15T00:19:17;21.00;;;20.03;;
11431;SDS011;5772;50.940;6.782;2023-04-15T00:21:42;20.10;;;19.10;;
11431;SDS011;5772;50.940;6.782;2023-04-15T00:24:07;21.57;;;20.57;;
11431;SDS011;5772;50.940;6.782;2023-04-15T00:26:34;20.57;;;19.47;;
11431;SDS011;5772;50.940;6.782;2023-04-15T00:28:59;22.10;;;20.77;;
11431;SDS011;5772;50.940;6.782;2023-04-15T00:31:25;21.97;;;20.60;;
11431;SDS011;5772;50.940;6.782;2023-04-15T00:33:50;20.43;;;19.53;;
11431;SDS011;5772;50.940;6.782;2023-04-15T00:36:15;22.93;;;21.70;;
11431;SDS011;5772;50.940;6.782;2023-04-15T00:38:41;22.07;;;20.63;;
11431;SDS011;5772;50.940;6.782;2023-04-15T00:41:06;23.20;;;22.00;;
11431;SDS011;5772;50.940;6.782;2023-04-15T00:43:33;23.23;;;22.23;;
11431;SDS011;5772;50.940;6.782;2023-04-15T00:45:58;20.33;;;19.43;;
11431;SDS011;5772;50.940;6.782;2023-04-15T00:48:25;21.63;;;20.63;;
11431;SDS011;5772;50.940;6.782;2023-04-15T00:50:50;19.77;;;18.70;;
11431;SDS011;5772;50.940;6.782;2023-04-15T00:53:15;22.27;;;21.17;;
11431;SDS011;5772;50.940;6.782;2023-04-15T00:55:41;20.83;;;19.93;;
11431;SDS011;5772;50.940;6.782;2023-04-15T00:58:06;22.83;;;21.50;;
11431;SDS011;5772;50.940;6.782;2023-04-15T01:00:33;21.83;;;20.83;;
11431;SDS011;5772;50.940;6.782;2023-04-15T01:02:58;21.57;;;20.50;;
11431;SDS011;5772;50.940;6.782;2023-04-15T01:05:24;22.17;;;20.97;;
11431;SDS011;5772;50.940;6.782;2023-04-15T01:07:49;22.87;;;21.67;;
11431;SDS011;5772;50.940;6.782;2023-04-15T01:10:14;22.67;;;21.37;;
11431;SDS011;5772;50.940;6.782;2023-04-15T01:12:40;21.47;;;20.37;;
11431;SDS011;5772;50.940;6.782;2023-04-15T01:15:06;21.97;;;20.97;;
11431;SDS011;5772;50.940;6.782;2023-04-15T01:17:33;23.37;;;22.27;;
11431;SDS011;5772;50.940;6.782;2023-04-15T01:19:59;21.50;;;20.40;;
11431;SDS011;5772;50.940;6.782;2023-04-15T01:22:25;22.13;;;21.07;;
11431;SDS011;5772;50.940;6.782;2023-04-15T01:24:53;22.50;;;21.50;;
11431;SDS011;5772;50.940;6.782;2023-04-15T01:27:21;21.97;;;20.97;;
11431;SDS011;5772;50.940;6.782;2023-04-15T01:29:46;22.20;;;20.80;;
11431;SDS011;5772;50.940;6.782;2023-04-15T01:32:12;22.03;;;20.67;;
11431;SDS011;5772;50.940;6.782;2023-04-15T01:34:37;24.90;;;23.63;;
11431;SDS011;5772;50.940;6.782;2023-04-15T01:37:02;23.13;;;22.13;;
11431;SDS011;5772;50.940;6.782;2023-04-15T01:39:28;24.90;;;23.70;;
11431;SDS011;5772;50.940;6.782;2023-04-15T01:41:53;24.60;;;23.43;;
11431;SDS011;5772;50.940;6.782;2023-04-15T01:44:20;25.20;;;24.03;;
11431;SDS011;5772;50.940;6.782;2023-04-15T01:46:45;23.47;;;22.47;;
11431;SDS011;5772;50.940;6.782;2023-04-15T01:49:11;23.63;;;22.63;;
11431;SDS011;5772;50.940;6.782;2023-04-15T01:51:36;25.97;;;24.47;;
11431;SDS011;5772;50.940;6.782;2023-04-15T01:54:01;24.17;;;22.87;;
11431;SDS011;5772;50.940;6.782;2023-04-15T01:56:27;25.57;;;24.30;;
11431;SDS011;5772;50.940;6.782;2023-04-15T01:58:52;24.03;;;23.03;;
11431;SDS011;5772;50.940;6.782;2023-04-15T02:01:19;26.63;;;25.33;;
11431;SDS011;5772;50.940;6.782;2023-04-15T02:03:44;25.97;;;24.87;;
11431;SDS011;5772;50.940;6.782;2023-04-15T02:06:10;24.43;;;23.23;;
11431;SDS011;5772;50.940;6.782;2023-04-15T02:08:35;24.63;;;23.53;;
11431;SDS011;5772;50.940;6.782;2023-04-15T02:11:01;25.40;;;24.20;;
11431;SDS011;5772;50.940;6.782;2023-04-15T02:13:26;25.00;;;23.80;;
11431;SDS011;5772;50.940;6.782;2023-04-15T02:15:51;25.77;;;24.50;;
11431;SDS011;5772;50.940;6.782;2023-04-15T02:18:20;24.63;;;23.43;;
11431;SDS011;5772;50.940;6.782;2023-04-15T02:20:45;25.00;;;23.80;;
11431;SDS011;5772;50.940;6.782;2023-04-15T02:23:10;25.97;;;24.53;;
11431;SDS011;5772;50.940;6.782;2023-04-15T02:25:36;26.60;;;25.40;;
11431;SDS011;5772;50.940;6.782;2023-04-15T02:28:01;25.60;;;24.13;;
11431;SDS011;5772;50.940;6.782;2023-04-15T02:30:27;24.83;;;23.43;;
11431;SDS011;5772;50.940;6.782;2023-04-15T02:32:52;24.07;;;22.93;;
11431;SDS011;5772;50.940;6.782;2023-04-15T02:35:19;26.13;;;24.57;;
11431;SDS011;5772;50.940;6.782;2023-04-15T02:37:44;23.80;;;22.70;;
11431;SDS011;5772;50.940;6.782;2023-04-15T02:40:10;23.83;;;22.63;;
11431;SDS011;5772;50.940;6.782;2023-04-15T02:42:36;23.87;;;22.77;;
11431;SDS011;5772;50.940;6.782;2023-04-15T02:45:02;25.13;;;23.93;;
11431;SDS011;5772;50.940;6.782;2023-04-15T02:47:27;25.07;;;23.77;;
11431;SDS011;5772;50.940;6.782;2023-04-15T02:49:52;24.07;;;22.67;;
11431;SDS011;5772;50.940;6.782;2023-04-15T02:52:19;24.07;;;22.97;;
11431;SDS011;5772;50.940;6.782;2023-04-15T02:54:44;22.33;;;21.33;;
11431;SDS011;5772;50.940;6.782;2023-04-15T02:57:10;24.60;;;23.30;;
11431;SDS011;5772;50.940;6.782;2023-04-15T02:59:35;26.33;;;25.07;;
11431;SDS011;5772;50.940;6.782;2023-04-15T03:02:00;23.17;;;21.77;;
11431;SDS011;5772;50.940;6.782;2023-04-15T03:04:26;22.57;;;21.43;;
11431;SDS011;5772;50.940;6.782;2023-04-15T03:06:52;24.67;;;23.57;;
11431;SDS011;5772;50.940;6.782;2023-04-15T03:09:18;25.27;;;23.63;;
11431;SDS011;5772;50.940;6.782;2023-04-15T03:11:44;22.63;;;20.80;;
11431;SDS011;5772;50.940;6.782;2023-04-15T03:14:09;23.50;;;22.27;;
11431;SDS011;5772;50.940;6.782;2023-04-15T03:16:34;23.97;;;22.73;;
11431;SDS011;5772;50.940;6.782;2023-04-15T03:19:00;24.63;;;23.53;;
11431;SDS011;5772;50.940;6.782;2023-04-15T03:21:25;24.00;;;22.80;;
11431;SDS011;5772;50.940;6.782;2023-04-15T03:23:51;23.23;;;21.87;;
11431;SDS011;5772;50.940;6.782;2023-04-15T03:26:24;24.17;;;22.97;;
11431;SDS011;5772;50.940;6.782;2023-04-15T03:28:50;23.43;;;22.27;;
11431;SDS011;5772;50.940;6.782;2023-04-15T03:31:16;24.43;;;23.17;;
11431;SDS011;5772;50.940;6.782;2023-04-15T03:33:41;25.27;;;23.90;;
11431;SDS011;5772;50.940;6.782;2023-04-15T03:36:06;24.93;;;23.63;;
11431;SDS011;5772;50.940;6.782;2023-04-15T03:38:32;25.47;;;23.67;;
11431;SDS011;5772;50.940;6.782;2023-04-15T03:40:57;24.63;;;23.33;;
11431;SDS011;5772;50.940;6.782;2023-04-15T03:43:24;24.73;;;23.33;;
11431;SDS011;5772;50.940;6.782;2023-04-15T03:45:49;22.53;;;21.43;;
11431;SDS011;5772;50.940;6.782;2023-04-15T03:48:15;24.83;;;23.63;;
11431;SDS011;5772;50.940;6.782;2023-04-15T03:50:40;24.47;;;22.83;;
11431;SDS011;5772;50.940;6.782;2023-04-15T03:53:05;26.67;;;25.37;;
11431;SDS011;5772;50.940;6.782;2023-04-15T03:55:31;24.83;;;23.57;;
11431;SDS011;5772;50.940;6.782;2023-04-15T03:57:56;25.20;;;23.80;;
11431;SDS011;5772;50.940;6.782;2023-04-15T04:00:23;24.80;;;23.30;;
11431;SDS011;5772;50.940;6.782;2023-04-15T04:02:48;25.03;;;23.73;;
11431;SDS011;5772;50.940;6.782;2023-04-15T04:05:14;25.00;;;23.60;;
11431;SDS011;5772;50.940;6.782;2023-04-15T04:07:39;23.80;;;22.60;;
11431;SDS011;5772;50.940;6.782;2023-04-15T04:10:05;26.67;;;25.47;;
11431;SDS011;5772;50.940;6.782;2023-04-15T04:12:31;25.70;;;24.47;;
11431;SDS011;5772;50.940;6.782;2023-04-15T04:14:56;24.93;;;23.53;;
11431;SDS011;5772;50.940;6.782;2023-04-15T04:17:23;25.17;;;23.83;;
11431;SDS011;5772;50.940;6.782;2023-04-15T04:19:48;25.33;;;24.13;;
11431;SDS011;5772;50.940;6.782;2023-04-15T04:22:13;24.67;;;23.37;;
11431;SDS011;5772;50.940;6.782;2023-04-15T04:24:39;27.03;;;25.57;;
11431;SDS011;5772;50.940;6.782;2023-04-15T04:27:04;25.70;;;24.50;;
11431;SDS011;5772;50.940;6.782;2023-04-15T04:29:29;26.30;;;24.90;;
11431;SDS011;5772;50.940;6.782;2023-04-15T04:31:55;25.37;;;24.03;;
11431;SDS011;5772;50.940;6.782;2023-04-15T04:34:21;26.60;;;25.17;;
11431;SDS011;5772;50.940;6.782;2023-04-15T04:36:47;24.50;;;23.30;;
11431;SDS011;5772;50.940;6.782;2023-04-15T04:39:12;25.23;;;23.83;;
11431;SDS011;5772;50.940;6.782;2023-04-15T04:41:37;27.73;;;26.33;;
11431;SDS011;5772;50.940;6.782;2023-04-15T04:44:03;24.20;;;23.00;;
11431;SDS011;5772;50.940;6.782;2023-04-15T04:46:28;24.87;;;23.47;;
11431;SDS011;5772;50.940;6.782;2023-04-15T04:48:54;27.17;;;25.60;;
11431;SDS011;5772;50.940;6.782;2023-04-15T04:51:20;26.13;;;24.83;;
11431;SDS011;5772;50.940;6.782;2023-04-15T04:53:46;25.67;;;24.27;;
11431;SDS011;5772;50.940;6.782;2023-04-15T04:56:11;26.83;;;25.10;;
11431;SDS011;5772;50.940;6.782;2023-04-15T04:58:37;26.37;;;25.07;;
11431;SDS011;5772;50.940;6.782;2023-04-15T05:01:02;26.10;;;24.77;;
11431;SDS011;5772;50.940;6.782;2023-04-15T05:03:27;24.77;;;23.20;;
11431;SDS011;5772;50.940;6.782;2023-04-15T05:05:53;25.00;;;23.53;;
11431;SDS011;5772;50.940;6.782;2023-04-15T05:08:19;26.87;;;25.47;;
11431;SDS011;5772;50.940;6.782;2023-04-15T05:10:45;25.47;;;23.97;;
11431;SDS011;5772;50.940;6.782;2023-04-15T05:13:10;25.87;;;24.30;;
11431;SDS011;5772;50.940;6.782;2023-04-15T05:15:36;24.13;;;22.93;;
11431;SDS011;5772;50.940;6.782;2023-04-15T05:18:01;26.57;;;24.83;;
11431;SDS011;5772;50.940;6.782;2023-04-15T05:20:27;24.87;;;23.23;;
11431;SDS011;5772;50.940;6.782;2023-04-15T05:22:52;25.20;;;23.90;;
11431;SDS011;5772;50.940;6.782;2023-04-15T05:25:19;27.60;;;26.00;;
11431;SDS011;5772;50.940;6.782;2023-04-15T05:27:44;26.57;;;25.00;;
11431;SDS011;5772;50.940;6.782;2023-04-15T05:30:10;26.43;;;24.83;;
11431;SDS011;5772;50.940;6.782;2023-04-15T05:32:35;26.23;;;24.90;;
11431;SDS011;5772;50.940;6.782;2023-04-15T05:35:01;25.07;;;23.70;;
11431;SDS011;5772;50.940;6.782;2023-04-15T05:37:26;26.03;;;24.63;;
11431;SDS011;5772;50.940;6.782;2023-04-15T05:39:51;25.63;;;24.10;;
11431;SDS011;5772;50.940;6.782;2023-04-15T05:42:18;26.37;;;24.70;;
11431;SDS011;5772;50.940;6.782;2023-04-15T05:44:43;26.10;;;24.70;;
11431;SDS011;5772;50.940;6.782;2023-04-15T05:47:09;26.77;;;25.17;;
11431;SDS011;5772;50.940;6.782;2023-04-15T05:49:34;25.73;;;24.37;;
11431;SDS011;5772;50.940;6.782;2023-04-15T05:51:59;26.70;;;25.10;;
11431;SDS011;5772;50.940;6.782;2023-04-15T05:54:25;26.10;;;24.50;;
11431;SDS011;5772;50.940;6.782;2023-04-15T05:56:50;25.77;;;24.27;;
11431;SDS011;5772;50.940;6.782;2023-04-15T05:59:17;25.50;;;24.03;;
11431;SDS011;5772;50.940;6.782;2023-04-15T06:01:42;26.43;;;25.03;;
11431;SDS011;5772;50.940;6.782;2023-04-15T06:04:08;25.47;;;24.10;;
11431;SDS011;5772;50.940;6.782;2023-04-15T06:06:33;24.97;;;23.60;;
11431;SDS011;5772;50.940;6.782;2023-04-15T06:08:58;26.27;;;24.77;;
11431;SDS011;5772;50.940;6.782;2023-04-15T06:11:24;24.73;;;23.27;;
11431;SDS011;5772;50.940;6.782;2023-04-15T06:13:49;25.23;;;23.87;;
11431;SDS011;5772;50.940;6.782;2023-04-15T06:16:16;25.37;;;24.17;;
11431;SDS011;5772;50.940;6.782;2023-04-15T06:18:41;25.03;;;23.63;;
11431;SDS011;5772;50.940;6.782;2023-04-15T06:21:06;27.03;;;25.63;;
11431;SDS011;5772;50.940;6.782;2023-04-15T06:23:33;27.77;;;26.37;;
11431;SDS011;5772;50.940;6.782;2023-04-15T06:25:58;26.23;;;24.87;;
11431;SDS011;5772;50.940;6.782;2023-04-15T06:28:24;26.83;;;25.60;;
11431;SDS011;5772;50.940;6.782;2023-04-15T06:30:49;22.77;;;21.43;;
11431;SDS011;5772;50.940;6.782;2023-04-15T06:33:16;24.17;;;22.73;;
11431;SDS011;5772;50.940;6.782;2023-04-15T06:35:41;22.90;;;21.80;;
11431;SDS011;5772;50.940;6.782;2023-04-15T06:38:06;22.43;;;21.33;;
11431;SDS011;5772;50.940;6.782;2023-04-15T06:40:32;22.67;;;21.53;;
11431;SDS011;5772;50.940;6.782;2023-04-15T06:42:57;25.77;;;24.57;;
11431;SDS011;5772;50.940;6.782;2023-04-15T06:45:23;26.57;;;25.10;;
11431;SDS011;5772;50.940;6.782;2023-04-15T06:47:48;24.97;;;23.67;;
11431;SDS011;5772;50.940;6.782;2023-04-15T06:50:15;25.20;;;23.73;;
11431;SDS011;5772;50.940;6.782;2023-04-15T06:52:40;23.50;;;22.40;;
11431;SDS011;5772;50.940;6.782;2023-04-15T06:55:06;23.43;;;22.13;;
11431;SDS011;5772;50.940;6.782;2023-04-15T06:57:32;23.47;;;21.87;;
11431;SDS011;5772;50.940;6.782;2023-04-15T06:59:57;22.10;;;20.87;;
11431;SDS011;5772;50.940;6.782;2023-04-15T07:02:22;21.37;;;20.27;;
11431;SDS011;5772;50.940;6.782;2023-04-15T07:04:48;19.83;;;18.80;;
11431;SDS011;5772;50.940;6.782;2023-04-15T07:07:15;20.93;;;19.67;;
11431;SDS011;5772;50.940;6.782;2023-04-15T07:09:40;19.40;;;18.20;;
11431;SDS011;5772;50.940;6.782;2023-04-15T07:12:05;20.43;;;19.10;;
11431;SDS011;5772;50.940;6.782;2023-04-15T07:14:31;22.20;;;20.23;;
11431;SDS011;5772;50.940;6.782;2023-04-15T07:16:56;20.70;;;19.47;;
11431;SDS011;5772;50.940;6.782;2023-04-15T07:19:21;20.07;;;18.97;;
11431;SDS011;5772;50.940;6.782;2023-04-15T07:21:47;20.10;;;18.90;;
11431;SDS011;5772;50.940;6.782;2023-04-15T07:24:13;22.47;;;21.07;;
11431;SDS011;5772;50.940;6.782;2023-04-15T07:26:39;23.27;;;21.77;;
11431;SDS011;5772;50.940;6.782;2023-04-15T07:29:04;21.40;;;20.10;;
11431;SDS011;5772;50.940;6.782;2023-04-15T07:31:30;22.37;;;21.07;;
11431;SDS011;5772;50.940;6.782;2023-04-15T07:33:55;22.13;;;20.63;;
11431;SDS011;5772;50.940;6.782;2023-04-15T07:36:20;23.10;;;21.57;;
11431;SDS011;5772;50.940;6.782;2023-04-15T07:38:46;21.90;;;20.40;;
11431;SDS011;5772;50.940;6.782;2023-04-15T07:41:12;22.60;;;21.03;;
11431;SDS011;5772;50.940;6.782;2023-04-15T07:43:38;20.63;;;19.07;;
11431;SDS011;5772;50.940;6.782;2023-04-15T07:46:03;21.50;;;20.20;;
11431;SDS011;5772;50.940;6.782;2023-04-15T07:48:29;20.67;;;19.37;;
11431;SDS011;5772;50.940;6.782;2023-04-15T07:50:54;18.93;;;17.83;;
11431;SDS011;5772;50.940;6.782;2023-04-15T07:53:19;19.90;;;18.67;;
11431;SDS011;5772;50.940;6.782;2023-04-15T07:55:45;20.27;;;19.13;;
11431;SDS011;5772;50.940;6.782;2023-04-15T07:58:11;19.30;;;18.10;;
11431;SDS011;5772;50.940;6.782;2023-04-15T08:00:37;21.20;;;19.97;;
11431;SDS011;5772;50.940;6.782;2023-04-15T08:03:02;21.87;;;20.57;;
11431;SDS011;5772;50.940;6.782;2023-04-15T08:05:28;21.70;;;20.10;;
11431;SDS011;5772;50.940;6.782;2023-04-15T08:07:53;21.50;;;20.23;;
11431;SDS011;5772;50.940;6.782;2023-04-15T08:10:18;22.40;;;21.10;;
11431;SDS011;5772;50.940;6.782;2023-04-15T08:12:44;23.87;;;22.53;;
11431;SDS011;5772;50.940;6.782;2023-04-15T08:15:10;23.30;;;21.80;;
11431;SDS011;5772;50.940;6.782;2023-04-15T08:17:36;21.30;;;20.10;;
11431;SDS011;5772;50.940;6.782;2023-04-15T08:20:02;25.93;;;24.30;;
11431;SDS011;5772;50.940;6.782;2023-04-15T08:22:27;25.10;;;23.40;;
11431;SDS011;5772;50.940;6.782;2023-04-15T08:24:53;23.97;;;22.63;;
11431;SDS011;5772;50.940;6.782;2023-04-15T08:27:18;24.97;;;23.43;;
11431;SDS011;5772;50.940;6.782;2023-04-15T08:29:43;23.37;;;21.93;;
11431;SDS011;5772;50.940;6.782;2023-04-15T08:32:10;24.67;;;23.20;;
11431;SDS011;5772;50.940;6.782;2023-04-15T08:34:36;22.57;;;21.37;;
11431;SDS011;5772;50.940;6.782;2023-04-15T08:37:01;23.67;;;22.17;;
11431;SDS011;5772;50.940;6.782;2023-04-15T08:39:26;23.20;;;21.87;;
11431;SDS011;5772;50.940;6.782;2023-04-15T08:41:55;21.40;;;20.23;;
11431;SDS011;5772;50.940;6.782;2023-04-15T08:44:23;19.47;;;18.57;;
11431;SDS011;5772;50.940;6.782;2023-04-15T08:46:48;20.27;;;19.17;;
11431;SDS011;5772;50.940;6.782;2023-04-15T08:49:15;19.80;;;18.90;;
11431;SDS011;5772;50.940;6.782;2023-04-15T08:51:41;18.80;;;17.80;;
11431;SDS011;5772;50.940;6.782;2023-04-15T08:54:07;19.90;;;18.53;;
11431;SDS011;5772;50.940;6.782;2023-04-15T08:56:32;17.73;;;16.80;;
11431;SDS011;5772;50.940;6.782;2023-04-15T08:58:58;20.80;;;19.77;;
11431;SDS011;5772;50.940;6.782;2023-04-15T09:01:24;18.93;;;17.93;;
11431;SDS011;5772;50.940;6.782;2023-04-15T09:03:50;18.13;;;17.27;;
11431;SDS011;5772;50.940;6.782;2023-04-15T09:06:16;17.77;;;17.00;;
11431;SDS011;5772;50.940;6.782;2023-04-15T09:08:42;17.53;;;16.43;;
11431;SDS011;5772;50.940;6.782;2023-04-15T09:11:07;16.63;;;15.93;;
11431;SDS011;5772;50.940;6.782;2023-04-15T09:13:33;17.13;;;16.43;;
11431;SDS011;5772;50.940;6.782;2023-04-15T09:16:00;17.30;;;16.50;;
11431;SDS011;5772;50.940;6.782;2023-04-15T09:18:26;15.93;;;15.23;;
11431;SDS011;5772;50.940;6.782;2023-04-15T09:20:52;16.60;;;15.90;;
11431;SDS011;5772;50.940;6.782;2023-04-15T09:23:19;15.53;;;14.83;;
11431;SDS011;5772;50.940;6.782;2023-04-15T09:25:44;16.83;;;15.93;;
11431;SDS011;5772;50.940;6.782;2023-04-15T09:28:10;17.27;;;16.40;;
11431;SDS011;5772;50.940;6.782;2023-04-15T09:30:35;18.07;;;17.27;;
11431;SDS011;5772;50.940;6.782;2023-04-15T09:33:01;17.47;;;16.47;;
11431;SDS011;5772;50.940;6.782;2023-04-15T09:35:27;15.83;;;15.03;;
11431;SDS011;5772;50.940;6.782;2023-04-15T09:37:53;16.50;;;15.80;;
11431;SDS011;5772;50.940;6.782;2023-04-15T09:40:31;17.53;;;16.63;;
11431;SDS011;5772;50.940;6.782;2023-04-15T09:42:57;16.07;;;15.37;;
11431;SDS011;5772;50.940;6.782;2023-04-15T09:45:23;17.40;;;16.70;;
11431;SDS011;5772;50.940;6.782;2023-04-15T09:47:49;18.20;;;17.27;;
11431;SDS011;5772;50.940;6.782;2023-04-15T09:50:14;17.50;;;16.77;;
11431;SDS011;5772;50.940;6.782;2023-04-15T09:52:40;17.33;;;16.53;;
11431;SDS011;5772;50.940;6.782;2023-04-15T09:55:06;15.60;;;14.90;;
11431;SDS011;5772;50.940;6.782;2023-04-15T09:57:34;14.97;;;14.27;;
11431;SDS011;5772;50.940;6.782;2023-04-15T09:59:59;16.10;;;15.30;;
11431;SDS011;5772;50.940;6.782;2023-04-15T10:02:25;15.77;;;15.07;;
11431;SDS011;5772;50.940;6.782;2023-04-15T10:04:51;17.97;;;17.07;;
11431;SDS011;5772;50.940;6.782;2023-04-15T10:07:16;16.17;;;15.40;;
11431;SDS011;5772;50.940;6.782;2023-04-15T10:09:42;16.77;;;15.97;;
11431;SDS011;5772;50.940;6.782;2023-04-15T10:12:08;16.60;;;15.70;;
11431;SDS011;5772;50.940;6.782;2023-04-15T10:14:35;16.23;;;15.40;;
11431;SDS011;5772;50.940;6.782;2023-04-15T10:17:02;16.07;;;15.27;;
11431;SDS011;5772;50.940;6.782;2023-04-15T10:19:30;15.82;;;15.02;;
11431;SDS011;5772;50.940;6.782;2023-04-15T10:21:56;13.90;;;13.20;;
11431;SDS011;5772;50.940;6.782;2023-04-15T10:24:22;14.93;;;14.23;;
11431;SDS011;5772;50.940;6.782;2023-04-15T10:26:48;15.52;;;14.70;;
11431;SDS011;5772;50.940;6.782;2023-04-15T10:29:14;16.60;;;15.80;;
11431;SDS011;5772;50.940;6.782;2023-04-15T10:31:40;16.27;;;15.48;;
11431;SDS011;5772;50.940;6.782;2023-04-15T10:34:06;16.33;;;15.43;;
11431;SDS011;5772;50.940;6.782;2023-04-15T10:36:31;15.95;;;15.13;;
11431;SDS011;5772;50.940;6.782;2023-04-15T10:38:57;16.05;;;15.25;;
11431;SDS011;5772;50.940;6.782;2023-04-15T10:41:22;14.77;;;14.18;;
11431;SDS011;5772;50.940;6.782;2023-04-15T10:43:49;15.60;;;14.80;;
11431;SDS011;5772;50.940;6.782;2023-04-15T10:46:17;15.95;;;15.25;;
11431;SDS011;5772;50.940;6.782;2023-04-15T10:48:47;14.97;;;14.30;;
11431;SDS011;5772;50.940;6.782;2023-04-15T10:51:13;16.63;;;15.93;;
11431;SDS011;5772;50.940;6.782;2023-04-15T10:53:38;15.93;;;15.23;;
11431;SDS011;5772;50.940;6.782;2023-04-15T10:56:06;17.63;;;16.83;;
11431;SDS011;5772;50.940;6.782;2023-04-15T10:58:39;16.23;;;15.53;;
11431;SDS011;5772;50.940;6.782;2023-04-15T11:01:05;18.40;;;17.60;;
11431;SDS011;5772;50.940;6.782;2023-04-15T11:03:37;16.70;;;15.93;;
11431;SDS011;5772;50.940;6.782;2023-04-15T11:06:05;16.40;;;15.70;;
11431;SDS011;5772;50.940;6.782;2023-04-15T11:11:17;16.37;;;15.57;;
11431;SDS011;5772;50.940;6.782;2023-04-15T11:13:46;15.60;;;14.90;;
11431;SDS011;5772;50.940;6.782;2023-04-15T11:16:12;16.37;;;15.67;;
11431;SDS011;5772;50.940;6.782;2023-04-15T11:18:38;15.43;;;14.63;;
11431;SDS011;5772;50.940;6.782;2023-04-15T11:21:06;15.73;;;14.93;;
11431;SDS011;5772;50.940;6.782;2023-04-15T11:23:33;16.83;;;15.93;;
11431;SDS011;5772;50.940;6.782;2023-04-15T11:26:01;18.53;;;17.63;;
11431;SDS011;5772;50.940;6.782;2023-04-15T11:28:28;18.03;;;17.23;;
11431;SDS011;5772;50.940;6.782;2023-04-15T11:30:54;18.43;;;17.63;;
11431;SDS011;5772;50.940;6.782;2023-04-15T11:33:20;17.30;;;16.50;;
11431;SDS011;5772;50.940;6.782;2023-04-15T11:35:46;17.80;;;16.93;;
11431;SDS011;5772;50.940;6.782;2023-04-15T11:38:13;21.53;;;20.00;;
11431;SDS011;5772;50.940;6.782;2023-04-15T11:40:40;17.27;;;16.50;;
11431;SDS011;5772;50.940;6.782;2023-04-15T11:43:06;18.37;;;17.53;;
11431;SDS011;5772;50.940;6.782;2023-04-15T11:45:32;18.17;;;17.27;;
11431;SDS011;5772;50.940;6.782;2023-04-15T11:48:05;18.30;;;17.50;;
11431;SDS011;5772;50.940;6.782;2023-04-15T11:50:31;18.73;;;17.83;;
11431;SDS011;5772;50.940;6.782;2023-04-15T11:52:57;18.00;;;17.20;;
11431;SDS011;5772;50.940;6.782;2023-04-15T11:55:24;17.87;;;17.00;;
11431;SDS011;5772;50.940;6.782;2023-04-15T11:58:04;16.70;;;16.00;;
11431;SDS011;5772;50.940;6.782;2023-04-15T12:00:30;16.17;;;15.47;;
11431;SDS011;5772;50.940;6.782;2023-04-15T12:03:10;16.47;;;15.77;;
11431;SDS011;5772;50.940;6.782;2023-04-15T12:05:35;17.33;;;16.53;;
11431;SDS011;5772;50.940;6.782;2023-04-15T12:08:01;18.23;;;17.47;;
11431;SDS011;5772;50.940;6.782;2023-04-15T12:10:30;19.77;;;18.87;;
11431;SDS011;5772;50.940;6.782;2023-04-15T12:12:55;19.13;;;18.33;;
11431;SDS011;5772;50.940;6.782;2023-04-15T12:15:21;19.27;;;18.37;;
11431;SDS011;5772;50.940;6.782;2023-04-15T12:17:46;18.07;;;17.27;;
11431;SDS011;5772;50.940;6.782;2023-04-15T12:20:11;19.07;;;18.07;;
11431;SDS011;5772;50.940;6.782;2023-04-15T12:22:37;19.13;;;18.23;;
11431;SDS011;5772;50.940;6.782;2023-04-15T12:25:02;17.90;;;17.10;;
11431;SDS011;5772;50.940;6.782;2023-04-15T12:27:30;18.50;;;17.53;;
11431;SDS011;5772;50.940;6.782;2023-04-15T12:30:02;20.63;;;19.53;;
11431;SDS011;5772;50.940;6.782;2023-04-15T12:32:28;22.53;;;21.17;;
11431;SDS011;5772;50.940;6.782;2023-04-15T12:34:53;22.67;;;21.37;;
11431;SDS011;5772;50.940;6.782;2023-04-15T12:37:19;23.53;;;22.23;;
11431;SDS011;5772;50.940;6.782;2023-04-15T12:39:46;21.03;;;19.80;;
11431;SDS011;5772;50.940;6.782;2023-04-15T12:42:11;22.73;;;20.93;;
11431;SDS011;5772;50.940;6.782;2023-04-15T12:44:38;21.33;;;19.97;;
11431;SDS011;5772;50.940;6.782;2023-04-15T12:47:04;22.23;;;20.63;;
11431;SDS011;5772;50.940;6.782;2023-04-15T12:49:29;23.77;;;22.37;;
11431;SDS011;5772;50.940;6.782;2023-04-15T12:51:56;21.60;;;20.23;;
11431;SDS011;5772;50.940;6.782;2023-04-15T12:54:22;21.87;;;20.40;;
11431;SDS011;5772;50.940;6.782;2023-04-15T12:56:48;22.17;;;20.87;;
11431;SDS011;5772;50.940;6.782;2023-04-15T12:59:14;22.90;;;21.50;;
11431;SDS011;5772;50.940;6.782;2023-04-15T13:01:41;22.03;;;20.53;;
11431;SDS011;5772;50.940;6.782;2023-04-15T13:04:06;21.57;;;20.10;;
11431;SDS011;5772;50.940;6.782;2023-04-15T13:06:32;21.93;;;20.43;;
11431;SDS011;5772;50.940;6.782;2023-04-15T13:08:57;20.90;;;19.70;;
11431;SDS011;5772;50.940;6.782;2023-04-15T13:11:22;22.03;;;20.63;;
11431;SDS011;5772;50.940;6.782;2023-04-15T13:13:48;23.03;;;21.43;;
11431;SDS011;5772;50.940;6.782;2023-04-15T13:16:14;24.23;;;22.33;;
11431;SDS011;5772;50.940;6.782;2023-04-15T13:18:40;23.77;;;22.10;;
11431;SDS011;5772;50.940;6.782;2023-04-15T13:21:06;23.97;;;22.33;;
11431;SDS011;5772;50.940;6.782;2023-04-15T13:23:31;21.77;;;20.43;;
11431;SDS011;5772;50.940;6.782;2023-04-15T13:25:57;22.23;;;20.93;;
11431;SDS011;5772;50.940;6.782;2023-04-15T13:28:22;21.40;;;20.00;;
11431;SDS011;5772;50.940;6.782;2023-04-15T13:30:47;20.80;;;19.70;;
11431;SDS011;5772;50.940;6.782;2023-04-15T13:33:13;20.10;;;19.00;;
11431;SDS011;5772;50.940;6.782;2023-04-15T13:35:39;21.73;;;20.07;;
11431;SDS011;5772;50.940;6.782;2023-04-15T13:38:05;20.37;;;19.27;;
11431;SDS011;5772;50.940;6.782;2023-04-15T13:40:30;21.67;;;20.47;;
11431;SDS011;5772;50.940;6.782;2023-04-15T13:42:55;21.70;;;20.60;;
11431;SDS011;5772;50.940;6.782;2023-04-15T13:45:21;21.90;;;20.60;;
11431;SDS011;5772;50.940;6.782;2023-04-15T13:47:47;20.17;;;18.87;;
11431;SDS011;5772;50.940;6.782;2023-04-15T13:50:12;20.80;;;19.60;;
11431;SDS011;5772;50.940;6.782;2023-04-15T13:52:39;19.10;;;18.10;;
11431;SDS011;5772;50.940;6.782;2023-04-15T13:55:05;20.13;;;19.17;;
11431;SDS011;5772;50.940;6.782;2023-04-15T13:57:31;21.20;;;20.10;;
11431;SDS011;5772;50.940;6.782;2023-04-15T13:59:56;21.20;;;19.83;;
11431;SDS011;5772;50.940;6.782;2023-04-15T14:02:22;20.70;;;19.50;;
11431;SDS011;5772;50.940;6.782;2023-04-15T14:04:47;21.37;;;20.07;;
11431;SDS011;5772;50.940;6.782;2023-04-15T14:07:13;20.77;;;19.37;;
11431;SDS011;5772;50.940;6.782;2023-04-15T14:09:39;21.83;;;20.67;;
11431;SDS011;5772;50.940;6.782;2023-04-15T14:12:05;19.97;;;18.87;;
11431;SDS011;5772;50.940;6.782;2023-04-15T14:14:30;19.87;;;18.87;;
11431;SDS011;5772;50.940;6.782;2023-04-15T14:16:56;20.43;;;19.43;;
11431;SDS011;5772;50.940;6.782;2023-04-15T14:19:21;19.73;;;18.73;;
11431;SDS011;5772;50.940;6.782;2023-04-15T14:21:47;19.20;;;18.13;;
11431;SDS011;5772;50.940;6.782;2023-04-15T14:24:12;20.47;;;19.47;;
11431;SDS011;5772;50.940;6.782;2023-04-15T14:26:39;20.17;;;19.13;;
11431;SDS011;5772;50.940;6.782;2023-04-15T14:29:04;20.70;;;19.70;;